createdAt,value
2019-05-11T00:01:14.770Z,10.17
2019-05-11T00:03:43.665Z,11.10
2019-05-11T00:06:12.658Z,11.90
2019-05-11T00:08:41.514Z,12.03
2019-05-11T00:11:10.537Z,11.63
2019-05-11T00:13:39.495Z,11.50
2019-05-11T00:16:08.729Z,10.90
2019-05-11T00:18:37.837Z,11.90
2019-05-11T00:21:06.877Z,11.30
2019-05-11T00:23:36.006Z,11.57
2019-05-11T00:26:05.077Z,11.07
2019-05-11T00:28:34.151Z,11.40
2019-05-11T00:31:03.267Z,10.03
2019-05-11T00:33:32.346Z,10.73
2019-05-11T00:36:01.427Z,11.03
2019-05-11T00:38:30.532Z,11.40
2019-05-11T00:40:59.604Z,10.70
2019-05-11T00:43:28.672Z,11.27
2019-05-11T00:45:57.737Z,10.33
2019-05-11T00:48:26.854Z,11.07
2019-05-11T00:50:56.015Z,11.00
2019-05-11T00:53:25.091Z,10.13
2019-05-11T00:55:54.163Z,11.23
2019-05-11T00:58:23.265Z,10.53
2019-05-11T01:00:52.314Z,11.00
2019-05-11T01:03:21.387Z,10.53
2019-05-11T01:05:50.442Z,11.23
2019-05-11T01:08:19.535Z,11.70
2019-05-11T01:10:48.561Z,10.47
2019-05-11T01:13:17.653Z,11.33
2019-05-11T01:15:46.756Z,10.97
2019-05-11T01:18:15.797Z,11.63
2019-05-11T01:20:45.124Z,10.53
2019-05-11T01:23:14.193Z,13.27
2019-05-11T01:25:43.282Z,11.70
2019-05-11T01:28:12.393Z,12.07
2019-05-11T01:30:41.481Z,11.73
2019-05-11T01:33:10.568Z,11.40
2019-05-11T01:35:39.672Z,12.07
2019-05-11T01:38:08.734Z,11.10
2019-05-11T01:40:37.853Z,12.00
2019-05-11T01:43:06.936Z,12.07
2019-05-11T01:45:36.306Z,12.63
2019-05-11T01:48:05.406Z,10.37
2019-05-11T01:50:34.480Z,11.13
2019-05-11T01:53:03.529Z,10.67
2019-05-11T01:55:32.608Z,11.00
2019-05-11T01:58:01.621Z,10.40
2019-05-11T02:00:30.682Z,11.53
2019-05-11T02:02:59.765Z,11.60
2019-05-11T02:05:32.024Z,13.77
2019-05-11T02:08:01.915Z,11.10
2019-05-11T02:10:31.279Z,12.37
2019-05-11T02:13:00.357Z,11.97
2019-05-11T02:15:29.472Z,11.37
2019-05-11T02:17:58.514Z,11.83
2019-05-11T02:20:27.567Z,12.03
2019-05-11T02:22:56.566Z,12.43
2019-05-11T02:25:25.628Z,11.73
2019-05-11T02:27:54.647Z,12.20
2019-05-11T02:30:23.718Z,11.43
2019-05-11T02:32:52.777Z,11.40
2019-05-11T02:35:21.831Z,11.80
2019-05-11T02:37:50.875Z,10.43
2019-05-11T02:40:21.210Z,11.63
2019-05-11T02:42:50.270Z,10.70
2019-05-11T02:45:30.924Z,11.07
2019-05-11T02:47:59.956Z,11.07
2019-05-11T02:50:29.061Z,10.87
2019-05-11T02:52:58.073Z,11.17
2019-05-11T02:55:27.126Z,11.67
2019-05-11T02:57:56.199Z,10.53
2019-05-11T03:00:39.270Z,12.73
2019-05-11T03:03:08.291Z,11.27
2019-05-11T03:05:37.314Z,10.37
2019-05-11T03:08:06.411Z,11.90
2019-05-11T03:10:35.512Z,10.77
2019-05-11T03:13:04.561Z,10.67
2019-05-11T03:15:33.582Z,10.73
2019-05-11T03:18:02.753Z,10.90
2019-05-11T03:20:31.818Z,10.67
2019-05-11T03:23:00.894Z,10.70
2019-05-11T03:25:29.904Z,10.80
2019-05-11T03:27:58.980Z,15.50
2019-05-11T03:30:28.056Z,11.47
2019-05-11T03:32:57.141Z,11.20
2019-05-11T03:35:26.200Z,11.47
2019-05-11T03:37:55.193Z,11.07
2019-05-11T03:40:24.244Z,13.10
2019-05-11T03:42:53.298Z,11.50
2019-05-11T03:45:22.312Z,11.70
2019-05-11T03:47:51.415Z,13.70
2019-05-11T03:50:20.449Z,11.93
2019-05-11T03:52:49.525Z,12.50
2019-05-11T03:55:18.556Z,12.70
2019-05-11T03:57:47.657Z,12.70
2019-05-11T04:00:16.698Z,13.03
2019-05-11T04:02:45.721Z,11.80
2019-05-11T04:05:14.751Z,11.27
2019-05-11T04:07:43.819Z,10.73
2019-05-11T04:10:12.890Z,12.70
2019-05-11T04:12:41.950Z,12.27
2019-05-11T04:15:11.187Z,16.20
2019-05-11T04:17:40.280Z,12.23
2019-05-11T04:20:09.306Z,11.80
2019-05-11T04:22:38.372Z,11.47
2019-05-11T04:25:07.421Z,11.60
2019-05-11T04:27:36.541Z,13.80
2019-05-11T04:30:06.225Z,11.83
2019-05-11T04:32:35.296Z,13.03
2019-05-11T04:35:04.673Z,12.73
2019-05-11T04:37:33.735Z,14.07
2019-05-11T04:40:02.806Z,12.53
2019-05-11T04:42:31.888Z,12.53
2019-05-11T04:45:00.957Z,13.57
2019-05-11T04:47:30.037Z,13.13
2019-05-11T04:49:59.125Z,12.17
2019-05-11T04:52:28.184Z,13.50
2019-05-11T04:54:57.186Z,12.43
2019-05-11T04:57:26.247Z,12.97
2019-05-11T04:59:55.354Z,13.47
2019-05-11T05:02:27.184Z,13.17
2019-05-11T05:04:55.210Z,13.87
2019-05-11T05:07:24.284Z,13.13
2019-05-11T05:09:53.386Z,13.77
2019-05-11T05:12:22.501Z,13.97
2019-05-11T05:14:51.607Z,14.43
2019-05-11T05:17:20.763Z,14.53
2019-05-11T05:19:49.808Z,13.83
2019-05-11T05:22:18.924Z,14.10
2019-05-11T05:24:48.067Z,14.57
2019-05-11T05:27:17.137Z,14.90
2019-05-11T05:29:46.184Z,15.13
2019-05-11T05:32:15.287Z,15.10
2019-05-11T05:34:44.341Z,15.37
2019-05-11T05:37:13.510Z,15.83
2019-05-11T05:39:42.578Z,15.87
2019-05-11T05:42:11.568Z,15.73
2019-05-11T05:44:40.754Z,15.60
2019-05-11T05:47:09.886Z,15.93
2019-05-11T05:49:39.056Z,15.90
2019-05-11T05:52:08.150Z,16.43
2019-05-11T05:54:37.201Z,18.60
2019-05-11T05:57:06.396Z,15.63
2019-05-11T05:59:35.538Z,16.57
2019-05-11T06:02:04.653Z,16.23
2019-05-11T06:04:36.695Z,17.80
2019-05-11T06:07:05.786Z,15.77
2019-05-11T06:09:35.123Z,16.10
2019-05-11T06:12:04.267Z,16.57
2019-05-11T06:14:33.326Z,16.13
2019-05-11T06:17:02.369Z,14.87
2019-05-11T06:19:31.446Z,17.60
2019-05-11T06:22:00.580Z,15.33
2019-05-11T06:24:29.960Z,18.60
2019-05-11T06:26:59.410Z,14.77
2019-05-11T06:29:29.085Z,15.10
2019-05-11T06:31:58.571Z,14.83
2019-05-11T06:34:27.924Z,17.50
2019-05-11T06:36:57.573Z,14.43
2019-05-11T06:39:26.700Z,14.80
2019-05-11T06:41:55.894Z,15.10
2019-05-11T06:44:25.101Z,14.70
2019-05-11T06:46:54.999Z,13.43
2019-05-11T06:49:24.767Z,14.43
2019-05-11T06:51:54.150Z,14.53
2019-05-11T06:54:23.281Z,14.20
2019-05-11T06:56:54.902Z,12.40
2019-05-11T06:59:24.461Z,13.33
2019-05-11T07:01:54.297Z,11.80
2019-05-11T07:04:23.361Z,12.30
2019-05-11T07:06:52.613Z,11.73
2019-05-11T07:09:21.662Z,12.00
2019-05-11T07:11:50.809Z,11.77
2019-05-11T07:14:21.495Z,11.50
2019-05-11T07:16:50.774Z,11.50
2019-05-11T07:19:19.899Z,12.50
2019-05-11T07:21:48.974Z,11.80
2019-05-11T07:24:18.004Z,11.20
2019-05-11T07:26:47.123Z,10.83
2019-05-11T07:29:16.133Z,11.23
2019-05-11T07:31:45.225Z,12.67
2019-05-11T07:34:14.297Z,11.00
2019-05-11T07:36:43.359Z,11.23
2019-05-11T07:39:12.426Z,10.57
2019-05-11T07:41:41.513Z,9.97
2019-05-11T07:44:10.680Z,10.93
2019-05-11T07:46:39.950Z,10.87
2019-05-11T07:49:09.077Z,10.37
2019-05-11T07:51:38.883Z,10.63
2019-05-11T07:54:08.581Z,12.13
2019-05-11T07:56:38.976Z,11.57
2019-05-11T07:59:08.432Z,12.40
2019-05-11T08:01:38.702Z,11.23
2019-05-11T08:04:08.054Z,13.27
2019-05-11T08:06:39.122Z,11.30
2019-05-11T08:09:08.646Z,11.47
2019-05-11T08:11:38.926Z,11.63
2019-05-11T08:14:08.246Z,11.20
2019-05-11T08:16:39.150Z,11.70
2019-05-11T08:19:10.749Z,12.23
2019-05-11T08:21:41.963Z,12.10
2019-05-11T08:24:11.254Z,12.67
2019-05-11T08:26:40.894Z,12.23
2019-05-11T08:29:10.073Z,13.47
2019-05-11T08:31:40.323Z,13.17
2019-05-11T08:34:09.477Z,15.70
2019-05-11T08:36:38.786Z,15.37
2019-05-11T08:39:08.409Z,17.40
2019-05-11T08:41:38.610Z,18.43
2019-05-11T08:44:08.913Z,21.80
2019-05-11T08:46:38.717Z,23.20
2019-05-11T08:49:08.778Z,25.20
2019-05-11T08:51:38.794Z,28.20
2019-05-11T08:54:09.031Z,30.77
2019-05-11T08:56:40.024Z,35.17
2019-05-11T08:59:09.122Z,31.87
2019-05-11T09:01:39.322Z,35.10
2019-05-11T09:04:09.093Z,34.90
2019-05-11T09:06:38.281Z,36.20
2019-05-11T09:09:09.018Z,35.03
2019-05-11T09:11:39.043Z,39.17
2019-05-11T09:14:08.539Z,39.77
2019-05-11T09:16:38.380Z,38.77
2019-05-11T09:19:08.833Z,37.50
2019-05-11T09:21:38.613Z,38.97
2019-05-11T09:24:08.409Z,44.87
2019-05-11T09:26:38.861Z,44.90
2019-05-11T09:29:08.850Z,45.20
2019-05-11T09:31:38.426Z,47.03
2019-05-11T09:34:09.047Z,44.37
2019-05-11T09:36:39.083Z,45.93
2019-05-11T09:39:09.094Z,40.00
2019-05-11T09:41:38.525Z,39.43
2019-05-11T09:44:09.016Z,39.50
2019-05-11T09:46:38.665Z,43.57
2019-05-11T09:49:08.175Z,39.07
2019-05-11T09:51:38.158Z,42.37
2019-05-11T09:54:08.012Z,39.37
2019-05-11T09:56:38.158Z,35.97
2019-05-11T09:59:08.770Z,27.80
2019-05-11T10:01:38.087Z,29.37
2019-05-11T10:04:08.974Z,28.73
2019-05-11T10:06:38.905Z,26.33
2019-05-11T10:09:08.449Z,28.50
2019-05-11T10:11:39.940Z,25.23
2019-05-11T10:14:08.657Z,25.43
2019-05-11T10:16:38.619Z,26.00
2019-05-11T10:19:08.593Z,27.30
2019-05-11T10:21:38.582Z,25.47
2019-05-11T10:24:08.562Z,23.97
2019-05-11T10:26:38.466Z,21.07
2019-05-11T10:29:08.070Z,26.17
2019-05-11T10:31:38.583Z,25.30
2019-05-11T10:34:08.797Z,23.97
2019-05-11T10:36:38.658Z,24.70
2019-05-11T10:39:09.300Z,21.17
2019-05-11T10:41:41.369Z,23.87
2019-05-11T10:44:10.411Z,22.13
2019-05-11T10:46:39.479Z,28.13
2019-05-11T10:49:08.570Z,18.67
2019-05-11T10:51:38.475Z,21.30
2019-05-11T10:54:08.753Z,21.30
2019-05-11T10:56:39.017Z,20.37
2019-05-11T10:59:08.201Z,22.97
2019-05-11T11:01:38.044Z,21.27
2019-05-11T11:04:08.014Z,20.73
2019-05-11T11:06:38.642Z,18.80
2019-05-11T11:09:09.144Z,17.23
2019-05-11T11:11:38.406Z,18.13
2019-05-11T11:14:08.755Z,18.80
2019-05-11T11:16:42.025Z,17.27
2019-05-11T11:19:08.891Z,16.43
2019-05-11T11:21:38.441Z,17.03
2019-05-11T11:24:07.840Z,15.30
2019-05-11T11:26:38.157Z,14.47
2019-05-11T11:29:08.540Z,13.27
2019-05-11T11:31:38.165Z,13.33
2019-05-11T11:34:08.235Z,14.03
2019-05-11T11:36:37.794Z,14.33
2019-05-11T11:39:08.538Z,13.27
2019-05-11T11:41:38.046Z,13.70
2019-05-11T11:44:07.841Z,13.90
2019-05-11T11:46:51.340Z,13.73
2019-05-11T11:49:08.512Z,13.17
2019-05-11T11:51:37.934Z,13.70
2019-05-11T11:54:08.818Z,13.27
2019-05-11T11:56:38.338Z,15.57
2019-05-11T11:59:08.578Z,14.47
2019-05-11T12:01:39.404Z,14.60
2019-05-11T12:04:08.509Z,15.73
2019-05-11T12:06:38.562Z,16.87
2019-05-11T12:09:11.429Z,14.97
2019-05-11T12:11:42.560Z,14.80
2019-05-11T12:14:11.731Z,17.43
2019-05-11T12:16:40.816Z,18.00
2019-05-11T12:19:09.973Z,16.53
2019-05-11T12:21:39.581Z,18.37
2019-05-11T12:24:08.691Z,16.60
2019-05-11T12:26:38.875Z,14.60
2019-05-11T12:29:08.823Z,17.07
2019-05-11T12:31:38.077Z,18.17
2019-05-11T12:34:08.716Z,14.63
2019-05-11T12:36:38.745Z,15.20
2019-05-11T12:39:09.193Z,17.23
2019-05-11T12:41:39.039Z,19.13
2019-05-11T12:44:08.414Z,19.73
2019-05-11T12:46:39.578Z,19.67
2019-05-11T12:49:08.537Z,18.10
2019-05-11T12:51:38.407Z,20.10
2019-05-11T12:54:08.344Z,20.07
2019-05-11T12:56:38.329Z,21.90
2019-05-11T12:59:08.338Z,20.40
2019-05-11T13:01:38.179Z,19.50
2019-05-11T13:04:08.878Z,20.37
2019-05-11T13:06:38.625Z,19.37
2019-05-11T13:09:09.095Z,18.93
2019-05-11T13:11:38.342Z,17.93
2019-05-11T13:14:08.145Z,17.80
2019-05-11T13:16:38.033Z,16.60
2019-05-11T13:19:08.405Z,15.80
2019-05-11T13:21:38.452Z,15.87
2019-05-11T13:24:08.500Z,13.63
2019-05-11T13:26:38.312Z,14.17
2019-05-11T13:29:08.055Z,12.63
2019-05-11T13:31:38.421Z,12.27
2019-05-11T13:34:08.473Z,10.97
2019-05-11T13:36:38.357Z,9.93
2019-05-11T13:39:08.867Z,12.03
2019-05-11T13:41:39.169Z,8.57
2019-05-11T13:44:08.283Z,9.10
2019-05-11T13:46:38.902Z,7.80
2019-05-11T13:49:08.678Z,8.67
2019-05-11T13:51:38.837Z,9.90
2019-05-11T13:54:10.537Z,7.50
2019-05-11T13:56:39.460Z,7.57
2019-05-11T13:59:12.698Z,7.03
2019-05-11T14:01:49.508Z,6.70
2019-05-11T14:04:18.582Z,7.10
2019-05-11T14:06:48.308Z,9.90
2019-05-11T14:09:18.374Z,8.10
2019-05-11T14:11:47.998Z,7.77
2019-05-11T14:14:18.352Z,6.43
2019-05-11T14:16:53.869Z,8.37
2019-05-11T14:19:23.044Z,8.57
2019-05-11T14:21:52.359Z,7.10
2019-05-11T14:24:21.820Z,7.33
2019-05-11T14:26:52.129Z,6.87
2019-05-11T14:29:24.294Z,7.73
2019-05-11T14:31:53.483Z,7.37
2019-05-11T14:34:24.749Z,9.57
2019-05-11T14:36:58.245Z,8.37
2019-05-11T14:39:28.279Z,9.67
2019-05-11T14:41:58.672Z,7.53
2019-05-11T14:44:29.566Z,10.07
2019-05-11T14:46:59.393Z,8.23
2019-05-11T14:49:28.734Z,7.73
2019-05-11T14:51:57.899Z,7.03
2019-05-11T14:54:28.870Z,8.97
2019-05-11T14:57:00.956Z,9.80
2019-05-11T14:59:30.037Z,7.43
2019-05-11T15:01:59.195Z,7.73
2019-05-11T15:04:28.806Z,8.47
2019-05-11T15:06:58.279Z,7.80
2019-05-11T15:09:28.617Z,7.50
2019-05-11T15:11:58.231Z,9.57
2019-05-11T15:14:28.845Z,8.27
2019-05-11T15:16:58.308Z,8.40
2019-05-11T15:19:27.837Z,7.93
2019-05-11T15:21:58.164Z,11.03
2019-05-11T15:24:28.721Z,8.13
2019-05-11T15:26:58.480Z,7.60
2019-05-11T15:29:28.736Z,8.23
2019-05-11T15:31:58.093Z,9.80
2019-05-11T15:34:28.953Z,7.73
2019-05-11T15:36:58.415Z,7.63
2019-05-11T15:39:28.707Z,7.53
2019-05-11T15:42:09.381Z,7.67
2019-05-11T15:44:28.884Z,8.00
2019-05-11T15:46:58.338Z,7.03
2019-05-11T15:49:28.352Z,7.67
2019-05-11T15:51:57.979Z,9.70
2019-05-11T15:54:28.851Z,9.50
2019-05-11T15:56:59.927Z,9.33
2019-05-11T15:59:32.115Z,7.80
2019-05-11T16:02:01.385Z,7.53
2019-05-11T16:04:30.525Z,9.80
2019-05-11T16:07:00.124Z,7.77
2019-05-11T16:09:48.976Z,7.97
2019-05-11T16:12:18.337Z,7.87
2019-05-11T16:14:48.586Z,9.13
2019-05-11T16:17:18.380Z,9.50
2019-05-11T16:19:49.055Z,9.27
2019-05-11T16:22:21.085Z,8.40
2019-05-11T16:24:49.561Z,13.23
2019-05-11T16:27:18.695Z,9.27
2019-05-11T16:29:48.046Z,9.27
2019-05-11T16:32:17.159Z,7.13
2019-05-11T16:34:46.399Z,9.80
2019-05-11T16:37:18.319Z,8.23
2019-05-11T16:39:49.403Z,10.07
2019-05-11T16:42:17.686Z,11.93
2019-05-11T16:44:48.313Z,9.23
2019-05-11T16:47:18.168Z,19.33
2019-05-11T16:49:47.459Z,13.53
2019-05-11T16:52:18.341Z,10.40
2019-05-11T16:54:47.802Z,8.53
2019-05-11T16:57:17.699Z,7.93
2019-05-11T16:59:48.380Z,8.17
2019-05-11T17:02:18.775Z,7.07
2019-05-11T17:04:48.057Z,8.57
2019-05-11T17:07:17.073Z,8.37
2019-05-11T17:09:48.158Z,8.30
2019-05-11T17:12:18.007Z,8.17
2019-05-11T17:14:59.935Z,6.47
2019-05-11T17:17:29.107Z,7.83
2019-05-11T17:19:58.941Z,9.73
2019-05-11T17:22:28.283Z,8.37
2019-05-11T17:24:58.941Z,7.40
2019-05-11T17:27:28.636Z,12.00
2019-05-11T17:29:59.315Z,26.23
2019-05-11T17:32:29.440Z,7.67
2019-05-11T17:34:58.695Z,8.80
2019-05-11T17:37:28.529Z,7.57
2019-05-11T17:39:58.663Z,10.17
2019-05-11T17:42:27.983Z,11.07
2019-05-11T17:44:58.912Z,10.13
2019-05-11T17:47:28.330Z,7.97
2019-05-11T17:50:03.501Z,7.30
2019-05-11T17:52:28.754Z,7.67
2019-05-11T17:54:58.017Z,8.90
2019-05-11T17:57:27.743Z,14.00
2019-05-11T17:59:57.961Z,7.90
2019-05-11T18:02:28.838Z,8.70
2019-05-11T18:04:58.482Z,12.03
2019-05-11T18:07:30.717Z,8.97
2019-05-11T18:09:58.730Z,11.87
2019-05-11T18:12:28.585Z,9.00
2019-05-11T18:14:58.584Z,8.50
2019-05-11T18:17:28.097Z,10.37
2019-05-11T18:20:06.642Z,10.23
2019-05-11T18:22:28.565Z,12.33
2019-05-11T18:24:58.147Z,7.30
2019-05-11T18:27:27.857Z,9.47
2019-05-11T18:30:03.017Z,8.80
2019-05-11T18:32:32.188Z,8.00
2019-05-11T18:35:01.607Z,7.83
2019-05-11T18:37:30.823Z,7.53
2019-05-11T18:39:59.902Z,9.17
2019-05-11T18:42:29.059Z,7.47
2019-05-11T18:45:00.248Z,8.80
2019-05-11T18:47:29.943Z,6.57
2019-05-11T18:49:59.389Z,7.10
2019-05-11T18:52:28.456Z,6.13
2019-05-11T18:54:57.895Z,7.63
2019-05-11T18:57:27.821Z,7.60
2019-05-11T18:59:58.723Z,5.87
2019-05-11T19:02:28.039Z,6.70
2019-05-11T19:04:58.140Z,7.30
2019-05-11T19:07:28.322Z,5.97
2019-05-11T19:09:57.803Z,7.00
2019-05-11T19:12:27.914Z,6.07
2019-05-11T19:14:58.729Z,2.50
2019-05-11T19:17:29.051Z,2.10
2019-05-11T19:19:58.236Z,2.27
2019-05-11T19:22:28.880Z,2.50
2019-05-11T19:24:58.356Z,3.43
2019-05-11T19:27:28.845Z,2.80
2019-05-11T19:29:58.023Z,3.07
2019-05-11T19:32:28.241Z,3.13
2019-05-11T19:34:58.088Z,2.17
2019-05-11T19:37:27.988Z,3.10
2019-05-11T19:39:58.004Z,2.10
2019-05-11T19:42:28.527Z,3.83
2019-05-11T19:44:57.799Z,6.47
2019-05-11T19:47:28.232Z,2.67
2019-05-11T19:49:58.250Z,4.83
2019-05-11T19:52:28.220Z,2.37
2019-05-11T19:54:57.835Z,5.77
2019-05-11T19:57:28.294Z,3.90
2019-05-11T19:59:58.346Z,3.87
2019-05-11T20:02:28.355Z,10.00
2019-05-11T20:04:58.509Z,5.00
2019-05-11T20:07:27.702Z,4.80
2019-05-11T20:09:56.767Z,2.10
2019-05-11T20:12:25.788Z,5.43
2019-05-11T20:14:54.951Z,8.43
2019-05-11T20:17:24.039Z,4.57
2019-05-11T20:19:53.078Z,5.37
2019-05-11T20:22:22.113Z,3.73
2019-05-11T20:24:51.228Z,4.03
2019-05-11T20:27:20.301Z,3.03
2019-05-11T20:29:49.407Z,2.40
2019-05-11T20:32:18.843Z,3.90
2019-05-11T20:34:48.321Z,7.60
2019-05-11T20:37:18.217Z,4.13
2019-05-11T20:39:48.152Z,3.77
2019-05-11T20:42:18.137Z,5.53
2019-05-11T20:44:47.327Z,3.30
2019-05-11T20:47:17.835Z,3.83
2019-05-11T20:49:48.177Z,3.17
2019-05-11T20:52:17.906Z,4.37
2019-05-11T20:54:47.730Z,4.13
2019-05-11T20:57:17.982Z,4.50
2019-05-11T20:59:47.187Z,3.47
2019-05-11T21:02:18.280Z,5.77
2019-05-11T21:04:49.129Z,3.67
2019-05-11T21:07:19.915Z,4.17
2019-05-11T21:09:48.620Z,3.53
2019-05-11T21:12:18.496Z,4.50
2019-05-11T21:14:48.623Z,2.83
2019-05-11T21:17:18.271Z,2.63
2019-05-11T21:19:47.885Z,4.43
2019-05-11T21:22:17.246Z,4.43
2019-05-11T21:24:49.418Z,5.07
2019-05-11T21:27:19.938Z,3.77
2019-05-11T21:29:49.093Z,2.83
2019-05-11T21:32:18.539Z,2.90
2019-05-11T21:38:17.730Z,4.47
2019-05-11T21:40:48.546Z,4.00
2019-05-11T21:43:17.642Z,4.60
2019-05-11T21:45:46.689Z,2.30
2019-05-11T21:48:15.720Z,3.17
2019-05-11T21:50:44.897Z,5.63
2019-05-11T21:53:13.932Z,7.40
2019-05-11T21:55:42.998Z,5.90
2019-05-11T21:58:12.116Z,4.83
2019-05-11T22:00:41.251Z,3.20
2019-05-11T22:03:10.571Z,2.90
2019-05-11T22:05:39.775Z,2.10
2019-05-11T22:08:08.808Z,4.90
2019-05-11T22:10:38.554Z,3.97
2019-05-11T22:13:07.796Z,4.73
2019-05-11T22:15:38.614Z,6.53
2019-05-11T22:18:08.164Z,2.43
2019-05-11T22:20:40.569Z,3.27
2019-05-11T22:23:08.627Z,2.13
2019-05-11T22:25:38.324Z,5.63
2019-05-11T22:28:08.405Z,9.20
2019-05-11T22:30:39.311Z,6.40
2019-05-11T22:33:08.947Z,3.80
2019-05-11T22:35:38.405Z,8.17
2019-05-11T22:38:08.399Z,3.40
2019-05-11T22:40:38.437Z,9.47
2019-05-11T22:43:09.313Z,3.67
2019-05-11T22:45:38.543Z,7.27
2019-05-11T22:48:08.022Z,5.50
2019-05-11T22:50:38.143Z,6.03
2019-05-11T22:53:08.649Z,6.90
2019-05-11T22:55:38.780Z,4.53
2019-05-11T22:58:08.543Z,3.30
2019-05-11T23:00:41.965Z,6.13
2019-05-11T23:03:11.265Z,3.80
2019-05-11T23:05:40.842Z,5.13
2019-05-11T23:08:09.914Z,2.07
2019-05-11T23:10:38.975Z,3.30
2019-05-11T23:13:11.080Z,5.03
2019-05-11T23:15:40.368Z,5.07
2019-05-11T23:18:09.810Z,2.93
2019-05-11T23:20:38.985Z,4.27
2019-05-11T23:23:08.795Z,4.50
2019-05-11T23:25:38.137Z,3.80
2019-05-11T23:28:07.978Z,3.37
2019-05-11T23:30:38.913Z,4.37
2019-05-11T23:33:08.044Z,3.30
2019-05-11T23:35:38.252Z,3.40
2019-05-11T23:38:07.538Z,4.50
2019-05-11T23:40:37.846Z,2.57
2019-05-11T23:43:08.559Z,4.67
2019-05-11T23:45:38.276Z,2.10
2019-05-11T23:48:07.504Z,7.57
2019-05-11T23:50:38.623Z,2.60
2019-05-11T23:53:10.069Z,3.07
2019-05-11T23:55:38.175Z,4.27
2019-05-11T23:58:08.221Z,3.80
